Fremont, Ohio
Current Conditions -  °F | °C
As of 3:53 PM on Thursday 23 Oct 2014 (Local Time) from KPCW Reporting Station
Clear Clear  
Wind Chill: 52°   Ceiling: Unl
Heat Index: 52°   Visibility: 10mi
Dew Point: 41°   Wind: 5mph
Humidity: 66%   Direction: 10°N
Pressure: 30.15"   Gusts: NA
Location:  41.35°N, 83.11°W
Report Text: KPCW 231953Z AUTO 01004KT 10SM CLR 11/05 A3015 RMK AO2 T01110050 $
Loading
Personal Weather Stations






























Interactive Weather Map New forecast layout! Learn more

10-Day Weather Forecast

Advertisements
Track Severe Weather on mobile